sensor_id;sensor_type;location;lat;lon;timestamp;P1;durP1;ratioP1;P2;durP2;ratioP2
10896;SDS011;5501;51.176;6.470;2024-03-23T00:54:49;4.80;;;2.08;;
10896;SDS011;5501;51.176;6.470;2024-03-23T00:59:50;4.28;;;2.22;;
10896;SDS011;5501;51.176;6.470;2024-03-23T01:04:50;8.68;;;2.10;;
10896;SDS011;5501;51.176;6.470;2024-03-23T01:09:51;5.10;;;1.60;;
10896;SDS011;5501;51.176;6.470;2024-03-23T01:14:53;9.73;;;2.70;;
10896;SDS011;5501;51.176;6.470;2024-03-23T01:19:53;11.50;;;1.98;;
10896;SDS011;5501;51.176;6.470;2024-03-23T01:24:54;12.57;;;2.00;;
10896;SDS011;5501;51.176;6.470;2024-03-23T01:29:54;8.70;;;2.15;;
10896;SDS011;5501;51.176;6.470;2024-03-23T01:34:55;2.95;;;1.20;;
10896;SDS011;5501;51.176;6.470;2024-03-23T01:39:55;4.50;;;1.40;;
10896;SDS011;5501;51.176;6.470;2024-03-23T01:44:56;5.25;;;1.10;;
10896;SDS011;5501;51.176;6.470;2024-03-23T01:49:57;1.08;;;0.98;;
10896;SDS011;5501;51.176;6.470;2024-03-23T01:54:57;2.90;;;1.58;;
10896;SDS011;5501;51.176;6.470;2024-03-23T01:59:58;4.30;;;1.48;;
10896;SDS011;5501;51.176;6.470;2024-03-23T02:05:01;8.45;;;1.25;;
10896;SDS011;5501;51.176;6.470;2024-03-23T02:10:02;4.28;;;1.08;;
10896;SDS011;5501;51.176;6.470;2024-03-23T02:15:03;4.05;;;1.50;;
10896;SDS011;5501;51.176;6.470;2024-03-23T02:20:04;4.25;;;1.08;;
10896;SDS011;5501;51.176;6.470;2024-03-23T02:25:06;1.88;;;0.95;;
10896;SDS011;5501;51.176;6.470;2024-03-23T02:30:07;4.38;;;2.22;;
10896;SDS011;5501;51.176;6.470;2024-03-23T02:35:08;3.35;;;1.20;;
10896;SDS011;5501;51.176;6.470;2024-03-23T02:40:09;5.95;;;1.95;;
10896;SDS011;5501;51.176;6.470;2024-03-23T02:45:09;3.35;;;1.10;;
10896;SDS011;5501;51.176;6.470;2024-03-23T02:50:10;4.60;;;1.13;;
10896;SDS011;5501;51.176;6.470;2024-03-23T02:55:10;6.95;;;1.30;;
10896;SDS011;5501;51.176;6.470;2024-03-23T03:00:11;7.43;;;1.73;;
10896;SDS011;5501;51.176;6.470;2024-03-23T03:05:13;2.97;;;1.02;;
10896;SDS011;5501;51.176;6.470;2024-03-23T03:10:14;5.70;;;1.58;;
10896;SDS011;5501;51.176;6.470;2024-03-23T03:15:14;5.57;;;1.30;;
10896;SDS011;5501;51.176;6.470;2024-03-23T03:20:15;1.60;;;1.10;;
10896;SDS011;5501;51.176;6.470;2024-03-23T03:25:16;2.90;;;0.82;;
10896;SDS011;5501;51.176;6.470;2024-03-23T03:30:16;2.58;;;1.10;;
10896;SDS011;5501;51.176;6.470;2024-03-23T03:35:17;4.05;;;1.33;;
10896;SDS011;5501;51.176;6.470;2024-03-23T03:40:18;4.95;;;1.70;;
10896;SDS011;5501;51.176;6.470;2024-03-23T03:45:18;4.28;;;1.63;;
10896;SDS011;5501;51.176;6.470;2024-03-23T03:50:19;6.68;;;1.58;;
10896;SDS011;5501;51.176;6.470;2024-03-23T03:55:20;5.30;;;1.40;;
10896;SDS011;5501;51.176;6.470;2024-03-23T04:00:21;1.60;;;0.95;;
10896;SDS011;5501;51.176;6.470;2024-03-23T04:05:21;4.53;;;1.77;;
10896;SDS011;5501;51.176;6.470;2024-03-23T04:10:22;14.55;;;1.42;;
10896;SDS011;5501;51.176;6.470;2024-03-23T04:15:23;3.42;;;1.90;;
10896;SDS011;5501;51.176;6.470;2024-03-23T04:20:23;10.43;;;2.17;;
10896;SDS011;5501;51.176;6.470;2024-03-23T04:25:24;6.72;;;1.98;;
10896;SDS011;5501;51.176;6.470;2024-03-23T04:30:24;5.70;;;1.83;;
10896;SDS011;5501;51.176;6.470;2024-03-23T04:35:28;7.97;;;2.03;;
10896;SDS011;5501;51.176;6.470;2024-03-23T04:40:28;2.55;;;1.45;;
10896;SDS011;5501;51.176;6.470;2024-03-23T04:45:29;4.68;;;1.83;;
10896;SDS011;5501;51.176;6.470;2024-03-23T04:50:30;4.53;;;2.03;;
10896;SDS011;5501;51.176;6.470;2024-03-23T04:55:30;3.75;;;1.88;;
10896;SDS011;5501;51.176;6.470;2024-03-23T05:00:31;7.28;;;2.47;;
10896;SDS011;5501;51.176;6.470;2024-03-23T05:05:32;5.75;;;1.95;;
10896;SDS011;5501;51.176;6.470;2024-03-23T05:10:33;11.10;;;1.63;;
10896;SDS011;5501;51.176;6.470;2024-03-23T05:15:34;8.30;;;2.10;;
10896;SDS011;5501;51.176;6.470;2024-03-23T05:20:35;5.85;;;2.47;;
10896;SDS011;5501;51.176;6.470;2024-03-23T05:25:36;11.30;;;2.90;;
10896;SDS011;5501;51.176;6.470;2024-03-23T05:30:36;6.63;;;2.25;;
10896;SDS011;5501;51.176;6.470;2024-03-23T05:35:37;10.65;;;2.53;;
10896;SDS011;5501;51.176;6.470;2024-03-23T05:40:37;5.85;;;2.15;;
10896;SDS011;5501;51.176;6.470;2024-03-23T05:45:40;4.15;;;2.00;;
10896;SDS011;5501;51.176;6.470;2024-03-23T05:50:41;6.60;;;2.33;;
10896;SDS011;5501;51.176;6.470;2024-03-23T05:55:41;5.22;;;2.33;;
10896;SDS011;5501;51.176;6.470;2024-03-23T06:00:42;9.95;;;1.98;;
10896;SDS011;5501;51.176;6.470;2024-03-23T06:05:43;11.13;;;2.88;;
10896;SDS011;5501;51.176;6.470;2024-03-23T06:10:44;8.45;;;2.75;;
10896;SDS011;5501;51.176;6.470;2024-03-23T06:15:46;7.90;;;3.13;;
10896;SDS011;5501;51.176;6.470;2024-03-23T06:20:46;6.05;;;2.17;;
10896;SDS011;5501;51.176;6.470;2024-03-23T06:25:47;11.95;;;2.58;;
10896;SDS011;5501;51.176;6.470;2024-03-23T06:30:48;12.02;;;3.80;;
10896;SDS011;5501;51.176;6.470;2024-03-23T06:35:51;15.15;;;3.33;;
10896;SDS011;5501;51.176;6.470;2024-03-23T06:40:52;8.02;;;2.40;;
10896;SDS011;5501;51.176;6.470;2024-03-23T06:45:53;8.43;;;3.35;;
10896;SDS011;5501;51.176;6.470;2024-03-23T06:50:57;12.45;;;3.08;;
10896;SDS011;5501;51.176;6.470;2024-03-23T06:55:58;5.22;;;2.83;;
10896;SDS011;5501;51.176;6.470;2024-03-23T07:00:58;9.93;;;2.60;;
10896;SDS011;5501;51.176;6.470;2024-03-23T07:05:59;6.82;;;2.47;;
10896;SDS011;5501;51.176;6.470;2024-03-23T07:10:59;7.68;;;2.75;;
10896;SDS011;5501;51.176;6.470;2024-03-23T07:16:00;3.83;;;2.50;;
10896;SDS011;5501;51.176;6.470;2024-03-23T07:21:01;6.05;;;3.17;;
10896;SDS011;5501;51.176;6.470;2024-03-23T07:26:04;5.63;;;3.55;;
10896;SDS011;5501;51.176;6.470;2024-03-23T07:31:06;7.45;;;3.83;;
10896;SDS011;5501;51.176;6.470;2024-03-23T07:36:09;14.85;;;4.55;;
10896;SDS011;5501;51.176;6.470;2024-03-23T07:41:10;8.68;;;3.80;;
10896;SDS011;5501;51.176;6.470;2024-03-23T07:46:12;7.00;;;3.28;;
10896;SDS011;5501;51.176;6.470;2024-03-23T07:51:16;7.18;;;2.95;;
10896;SDS011;5501;51.176;6.470;2024-03-23T07:56:18;3.33;;;2.05;;
10896;SDS011;5501;51.176;6.470;2024-03-23T08:01:19;6.68;;;2.35;;
10896;SDS011;5501;51.176;6.470;2024-03-23T08:06:20;3.53;;;1.77;;
10896;SDS011;5501;51.176;6.470;2024-03-23T08:11:22;5.95;;;1.58;;
10896;SDS011;5501;51.176;6.470;2024-03-23T08:21:46;8.25;;;2.20;;
10896;SDS011;5501;51.176;6.470;2024-03-23T08:26:46;8.93;;;1.90;;
10896;SDS011;5501;51.176;6.470;2024-03-23T08:31:47;5.45;;;3.08;;
10896;SDS011;5501;51.176;6.470;2024-03-23T08:36:48;5.07;;;2.22;;
10896;SDS011;5501;51.176;6.470;2024-03-23T08:41:48;4.60;;;1.67;;
10896;SDS011;5501;51.176;6.470;2024-03-23T08:46:50;3.70;;;1.73;;
10896;SDS011;5501;51.176;6.470;2024-03-23T08:51:51;9.07;;;2.28;;
10896;SDS011;5501;51.176;6.470;2024-03-23T08:56:52;5.43;;;1.60;;
10896;SDS011;5501;51.176;6.470;2024-03-23T09:01:53;4.72;;;1.90;;
10896;SDS011;5501;51.176;6.470;2024-03-23T09:06:54;3.28;;;2.00;;
10896;SDS011;5501;51.176;6.470;2024-03-23T09:11:54;7.97;;;2.35;;
10896;SDS011;5501;51.176;6.470;2024-03-23T09:16:55;5.15;;;2.15;;
10896;SDS011;5501;51.176;6.470;2024-03-23T09:21:55;10.30;;;2.28;;
10896;SDS011;5501;51.176;6.470;2024-03-23T09:26:56;4.15;;;2.10;;
10896;SDS011;5501;51.176;6.470;2024-03-23T09:31:56;4.45;;;1.75;;
10896;SDS011;5501;51.176;6.470;2024-03-23T09:36:57;4.63;;;1.85;;
10896;SDS011;5501;51.176;6.470;2024-03-23T09:41:58;3.90;;;1.42;;
10896;SDS011;5501;51.176;6.470;2024-03-23T09:46:59;4.45;;;1.45;;
10896;SDS011;5501;51.176;6.470;2024-03-23T09:51:59;8.70;;;1.60;;
10896;SDS011;5501;51.176;6.470;2024-03-23T09:57:00;5.40;;;1.23;;
10896;SDS011;5501;51.176;6.470;2024-03-23T10:02:01;2.85;;;1.17;;
10896;SDS011;5501;51.176;6.470;2024-03-23T10:07:14;4.22;;;1.38;;
10896;SDS011;5501;51.176;6.470;2024-03-23T10:12:17;2.58;;;1.20;;
10896;SDS011;5501;51.176;6.470;2024-03-23T10:17:20;4.80;;;0.93;;
10896;SDS011;5501;51.176;6.470;2024-03-23T10:22:24;1.30;;;1.00;;
10896;SDS011;5501;51.176;6.470;2024-03-23T10:27:25;4.30;;;1.20;;
10896;SDS011;5501;51.176;6.470;2024-03-23T10:32:25;0.63;;;0.60;;
10896;SDS011;5501;51.176;6.470;2024-03-23T10:37:27;0.68;;;0.50;;
10896;SDS011;5501;51.176;6.470;2024-03-23T10:42:28;2.75;;;1.00;;
10896;SDS011;5501;51.176;6.470;2024-03-23T10:47:29;1.88;;;0.80;;
10896;SDS011;5501;51.176;6.470;2024-03-23T10:52:29;3.08;;;1.05;;
10896;SDS011;5501;51.176;6.470;2024-03-23T10:57:32;7.15;;;0.80;;
10896;SDS011;5501;51.176;6.470;2024-03-23T11:02:40;0.20;;;0.20;;
10896;SDS011;5501;51.176;6.470;2024-03-23T11:07:40;0.50;;;0.40;;
10896;SDS011;5501;51.176;6.470;2024-03-23T11:12:50;2.33;;;0.80;;
10896;SDS011;5501;51.176;6.470;2024-03-23T11:18:03;2.47;;;1.02;;
10896;SDS011;5501;51.176;6.470;2024-03-23T11:23:27;5.93;;;0.98;;
10896;SDS011;5501;51.176;6.470;2024-03-23T11:28:28;1.95;;;1.10;;
10896;SDS011;5501;51.176;6.470;2024-03-23T11:33:29;6.20;;;1.50;;
10896;SDS011;5501;51.176;6.470;2024-03-23T11:38:29;1.50;;;1.10;;
10896;SDS011;5501;51.176;6.470;2024-03-23T11:43:37;2.55;;;0.85;;
10896;SDS011;5501;51.176;6.470;2024-03-23T11:48:37;4.30;;;1.55;;
10896;SDS011;5501;51.176;6.470;2024-03-23T11:53:38;1.55;;;0.73;;
10896;SDS011;5501;51.176;6.470;2024-03-23T11:58:40;2.88;;;0.77;;
10896;SDS011;5501;51.176;6.470;2024-03-23T12:03:43;3.55;;;2.05;;
10896;SDS011;5501;51.176;6.470;2024-03-23T12:08:44;8.88;;;1.30;;
10896;SDS011;5501;51.176;6.470;2024-03-23T12:13:45;3.70;;;0.60;;
10896;SDS011;5501;51.176;6.470;2024-03-23T12:18:47;0.77;;;0.77;;
10896;SDS011;5501;51.176;6.470;2024-03-23T12:23:52;0.47;;;0.47;;
10896;SDS011;5501;51.176;6.470;2024-03-23T12:28:52;4.00;;;0.50;;
10896;SDS011;5501;51.176;6.470;2024-03-23T12:33:53;1.70;;;0.73;;
10896;SDS011;5501;51.176;6.470;2024-03-23T12:38:53;1.83;;;0.50;;
10896;SDS011;5501;51.176;6.470;2024-03-23T12:43:54;3.55;;;0.63;;
10896;SDS011;5501;51.176;6.470;2024-03-23T12:48:54;0.88;;;0.57;;
10896;SDS011;5501;51.176;6.470;2024-03-23T12:53:55;3.30;;;0.80;;
10896;SDS011;5501;51.176;6.470;2024-03-23T12:58:55;1.58;;;0.35;;
10896;SDS011;5501;51.176;6.470;2024-03-23T13:03:57;3.10;;;0.50;;
10896;SDS011;5501;51.176;6.470;2024-03-23T13:09:00;0.55;;;0.30;;
10896;SDS011;5501;51.176;6.470;2024-03-23T13:14:04;0.50;;;0.30;;
10896;SDS011;5501;51.176;6.470;2024-03-23T13:19:05;2.10;;;0.65;;
10896;SDS011;5501;51.176;6.470;2024-03-23T13:24:06;1.40;;;0.80;;
10896;SDS011;5501;51.176;6.470;2024-03-23T13:29:06;0.70;;;0.60;;
10896;SDS011;5501;51.176;6.470;2024-03-23T13:34:07;2.67;;;1.05;;
10896;SDS011;5501;51.176;6.470;2024-03-23T13:39:07;4.20;;;1.20;;
10896;SDS011;5501;51.176;6.470;2024-03-23T13:44:11;2.55;;;1.20;;
10896;SDS011;5501;51.176;6.470;2024-03-23T13:49:24;1.73;;;1.20;;
10896;SDS011;5501;51.176;6.470;2024-03-23T13:54:26;1.30;;;0.70;;
10896;SDS011;5501;51.176;6.470;2024-03-23T13:59:27;1.48;;;0.90;;
10896;SDS011;5501;51.176;6.470;2024-03-23T14:04:28;1.85;;;0.85;;
10896;SDS011;5501;51.176;6.470;2024-03-23T14:09:29;0.50;;;0.50;;
10896;SDS011;5501;51.176;6.470;2024-03-23T14:14:30;0.80;;;0.55;;
10896;SDS011;5501;51.176;6.470;2024-03-23T14:19:31;0.70;;;0.70;;
10896;SDS011;5501;51.176;6.470;2024-03-23T14:24:32;0.68;;;0.68;;
10896;SDS011;5501;51.176;6.470;2024-03-23T14:29:33;0.68;;;0.60;;
10896;SDS011;5501;51.176;6.470;2024-03-23T14:34:34;0.50;;;0.50;;
10896;SDS011;5501;51.176;6.470;2024-03-23T14:39:35;0.47;;;0.47;;
10896;SDS011;5501;51.176;6.470;2024-03-23T14:44:35;0.43;;;0.43;;
10896;SDS011;5501;51.176;6.470;2024-03-23T14:49:36;1.92;;;0.88;;
10896;SDS011;5501;51.176;6.470;2024-03-23T14:54:36;0.65;;;0.60;;
10896;SDS011;5501;51.176;6.470;2024-03-23T14:59:37;2.65;;;0.73;;
10896;SDS011;5501;51.176;6.470;2024-03-23T15:04:38;4.72;;;1.30;;
10896;SDS011;5501;51.176;6.470;2024-03-23T15:09:42;3.13;;;1.40;;
10896;SDS011;5501;51.176;6.470;2024-03-23T15:14:42;1.70;;;1.30;;
10896;SDS011;5501;51.176;6.470;2024-03-23T15:19:43;2.58;;;1.40;;
10896;SDS011;5501;51.176;6.470;2024-03-23T15:24:43;4.68;;;2.25;;
10896;SDS011;5501;51.176;6.470;2024-03-23T15:29:44;1.20;;;1.10;;
10896;SDS011;5501;51.176;6.470;2024-03-23T15:34:46;4.80;;;1.25;;
10896;SDS011;5501;51.176;6.470;2024-03-23T15:39:46;15.50;;;7.45;;
10896;SDS011;5501;51.176;6.470;2024-03-23T15:44:47;1.17;;;0.90;;
10896;SDS011;5501;51.176;6.470;2024-03-23T15:49:48;1.33;;;0.80;;
10896;SDS011;5501;51.176;6.470;2024-03-23T15:54:48;0.40;;;0.40;;
10896;SDS011;5501;51.176;6.470;2024-03-23T15:59:49;0.73;;;0.70;;
10896;SDS011;5501;51.176;6.470;2024-03-23T16:04:49;3.72;;;0.73;;
10896;SDS011;5501;51.176;6.470;2024-03-23T16:09:50;3.10;;;0.90;;
10896;SDS011;5501;51.176;6.470;2024-03-23T16:14:50;3.78;;;1.80;;
10896;SDS011;5501;51.176;6.470;2024-03-23T16:19:51;2.70;;;1.35;;
10896;SDS011;5501;51.176;6.470;2024-03-23T16:24:52;0.75;;;0.75;;
10896;SDS011;5501;51.176;6.470;2024-03-23T16:29:52;1.40;;;0.77;;
10896;SDS011;5501;51.176;6.470;2024-03-23T16:34:53;2.72;;;1.02;;
10896;SDS011;5501;51.176;6.470;2024-03-23T16:39:53;2.05;;;0.80;;
10896;SDS011;5501;51.176;6.470;2024-03-23T16:44:54;2.17;;;1.35;;
10896;SDS011;5501;51.176;6.470;2024-03-23T16:49:54;3.85;;;0.73;;
10896;SDS011;5501;51.176;6.470;2024-03-23T16:54:55;6.95;;;1.50;;
10896;SDS011;5501;51.176;6.470;2024-03-23T16:59:55;2.78;;;1.75;;
10896;SDS011;5501;51.176;6.470;2024-03-23T17:04:56;4.28;;;3.22;;
10896;SDS011;5501;51.176;6.470;2024-03-23T17:09:56;3.67;;;2.00;;
10896;SDS011;5501;51.176;6.470;2024-03-23T17:14:57;2.13;;;1.23;;
10896;SDS011;5501;51.176;6.470;2024-03-23T17:20:01;1.98;;;0.52;;
10896;SDS011;5501;51.176;6.470;2024-03-23T17:25:03;4.15;;;0.68;;
10896;SDS011;5501;51.176;6.470;2024-03-23T17:30:04;0.45;;;0.45;;
10896;SDS011;5501;51.176;6.470;2024-03-23T17:35:05;1.05;;;0.60;;
10896;SDS011;5501;51.176;6.470;2024-03-23T17:40:06;1.17;;;0.70;;
10896;SDS011;5501;51.176;6.470;2024-03-23T17:45:08;1.20;;;0.80;;
10896;SDS011;5501;51.176;6.470;2024-03-23T17:50:09;0.70;;;0.70;;
10896;SDS011;5501;51.176;6.470;2024-03-23T17:55:10;0.50;;;0.50;;
10896;SDS011;5501;51.176;6.470;2024-03-23T18:00:11;2.33;;;0.80;;
10896;SDS011;5501;51.176;6.470;2024-03-23T18:05:12;1.23;;;0.70;;
10896;SDS011;5501;51.176;6.470;2024-03-23T18:10:13;1.20;;;0.65;;
10896;SDS011;5501;51.176;6.470;2024-03-23T18:15:14;3.03;;;0.80;;
10896;SDS011;5501;51.176;6.470;2024-03-23T18:20:14;0.50;;;0.50;;
10896;SDS011;5501;51.176;6.470;2024-03-23T18:25:15;1.42;;;0.70;;
10896;SDS011;5501;51.176;6.470;2024-03-23T18:30:15;4.18;;;1.63;;
10896;SDS011;5501;51.176;6.470;2024-03-23T18:35:16;3.83;;;1.52;;
10896;SDS011;5501;51.176;6.470;2024-03-23T18:40:17;1.55;;;1.10;;
10896;SDS011;5501;51.176;6.470;2024-03-23T18:45:18;2.38;;;1.10;;
10896;SDS011;5501;51.176;6.470;2024-03-23T18:50:18;1.45;;;1.20;;
10896;SDS011;5501;51.176;6.470;2024-03-23T18:55:19;2.33;;;1.10;;
10896;SDS011;5501;51.176;6.470;2024-03-23T19:00:21;1.70;;;1.10;;
10896;SDS011;5501;51.176;6.470;2024-03-23T19:05:21;2.50;;;0.90;;
10896;SDS011;5501;51.176;6.470;2024-03-23T19:10:22;1.75;;;1.10;;
10896;SDS011;5501;51.176;6.470;2024-03-23T19:15:22;2.38;;;1.30;;
10896;SDS011;5501;51.176;6.470;2024-03-23T19:20:23;1.20;;;0.93;;
10896;SDS011;5501;51.176;6.470;2024-03-23T19:25:24;1.25;;;1.13;;
10896;SDS011;5501;51.176;6.470;2024-03-23T19:30:28;3.55;;;1.08;;
10896;SDS011;5501;51.176;6.470;2024-03-23T19:35:30;1.58;;;1.15;;
10896;SDS011;5501;51.176;6.470;2024-03-23T19:40:30;2.20;;;1.60;;
10896;SDS011;5501;51.176;6.470;2024-03-23T19:45:31;2.92;;;1.70;;
10896;SDS011;5501;51.176;6.470;2024-03-23T19:50:31;2.15;;;1.20;;
10896;SDS011;5501;51.176;6.470;2024-03-23T19:55:35;2.80;;;1.73;;
10896;SDS011;5501;51.176;6.470;2024-03-23T20:00:37;1.65;;;1.08;;
10896;SDS011;5501;51.176;6.470;2024-03-23T20:05:39;1.48;;;1.38;;
10896;SDS011;5501;51.176;6.470;2024-03-23T20:10:45;3.15;;;1.88;;
10896;SDS011;5501;51.176;6.470;2024-03-23T20:15:53;6.07;;;2.03;;
10896;SDS011;5501;51.176;6.470;2024-03-23T20:20:54;2.75;;;1.45;;
10896;SDS011;5501;51.176;6.470;2024-03-23T20:25:57;4.05;;;1.50;;
10896;SDS011;5501;51.176;6.470;2024-03-23T20:31:00;5.57;;;1.25;;
10896;SDS011;5501;51.176;6.470;2024-03-23T20:36:02;3.42;;;1.40;;
10896;SDS011;5501;51.176;6.470;2024-03-23T20:41:03;1.40;;;1.30;;
10896;SDS011;5501;51.176;6.470;2024-03-23T20:46:03;4.40;;;2.63;;
10896;SDS011;5501;51.176;6.470;2024-03-23T20:51:04;3.47;;;1.88;;
10896;SDS011;5501;51.176;6.470;2024-03-23T20:56:05;4.45;;;1.25;;
10896;SDS011;5501;51.176;6.470;2024-03-23T21:01:06;2.55;;;1.48;;
10896;SDS011;5501;51.176;6.470;2024-03-23T21:06:08;2.58;;;1.42;;
10896;SDS011;5501;51.176;6.470;2024-03-23T21:11:08;3.38;;;1.70;;
10896;SDS011;5501;51.176;6.470;2024-03-23T21:16:11;8.27;;;1.70;;
10896;SDS011;5501;51.176;6.470;2024-03-23T21:21:11;4.18;;;1.70;;
10896;SDS011;5501;51.176;6.470;2024-03-23T21:26:12;1.65;;;1.50;;
10896;SDS011;5501;51.176;6.470;2024-03-23T21:31:12;9.77;;;2.00;;
10896;SDS011;5501;51.176;6.470;2024-03-23T21:36:13;5.68;;;2.08;;
10896;SDS011;5501;51.176;6.470;2024-03-23T21:41:14;2.50;;;1.67;;
10896;SDS011;5501;51.176;6.470;2024-03-23T21:46:14;4.07;;;1.70;;
10896;SDS011;5501;51.176;6.470;2024-03-23T21:51:15;2.80;;;1.50;;
10896;SDS011;5501;51.176;6.470;2024-03-23T21:56:18;3.90;;;1.83;;
10896;SDS011;5501;51.176;6.470;2024-03-23T22:01:18;2.25;;;1.45;;
10896;SDS011;5501;51.176;6.470;2024-03-23T22:06:20;4.00;;;1.27;;
10896;SDS011;5501;51.176;6.470;2024-03-23T22:11:20;3.35;;;1.17;;
10896;SDS011;5501;51.176;6.470;2024-03-23T22:16:21;2.13;;;1.50;;
10896;SDS011;5501;51.176;6.470;2024-03-23T22:21:22;1.60;;;1.15;;
10896;SDS011;5501;51.176;6.470;2024-03-23T22:26:23;5.32;;;1.88;;
10896;SDS011;5501;51.176;6.470;2024-03-23T22:31:23;2.90;;;1.30;;
10896;SDS011;5501;51.176;6.470;2024-03-23T22:36:24;1.45;;;1.05;;
10896;SDS011;5501;51.176;6.470;2024-03-23T22:41:25;1.45;;;1.02;;
10896;SDS011;5501;51.176;6.470;2024-03-23T22:46:25;1.63;;;1.10;;
10896;SDS011;5501;51.176;6.470;2024-03-23T22:51:26;2.08;;;1.20;;
10896;SDS011;5501;51.176;6.470;2024-03-23T22:56:26;1.13;;;0.85;;
10896;SDS011;5501;51.176;6.470;2024-03-23T23:01:27;1.67;;;1.27;;
10896;SDS011;5501;51.176;6.470;2024-03-23T23:06:27;4.72;;;1.35;;
10896;SDS011;5501;51.176;6.470;2024-03-23T23:11:28;4.47;;;1.60;;
10896;SDS011;5501;51.176;6.470;2024-03-23T23:16:29;2.15;;;1.27;;
10896;SDS011;5501;51.176;6.470;2024-03-23T23:21:30;2.47;;;1.42;;
10896;SDS011;5501;51.176;6.470;2024-03-23T23:26:31;1.45;;;1.35;;
10896;SDS011;5501;51.176;6.470;2024-03-23T23:31:31;2.58;;;1.90;;
10896;SDS011;5501;51.176;6.470;2024-03-23T23:36:33;5.90;;;1.80;;
10896;SDS011;5501;51.176;6.470;2024-03-23T23:41:33;2.75;;;1.80;;
10896;SDS011;5501;51.176;6.470;2024-03-23T23:46:34;3.25;;;1.48;;
10896;SDS011;5501;51.176;6.470;2024-03-23T23:51:34;7.07;;;2.00;;
10896;SDS011;5501;51.176;6.470;2024-03-23T23:56:35;3.80;;;1.75;;
